sensor_id;sensor_type;location;lat;lon;timestamp;pressure;altitude;pressure_sealevel;temperature;humidity
65754;BME280;52488;47.502;18.940;2023-03-21T00:00:40;98074.03;;;11.83;66.39
65754;BME280;52488;47.502;18.940;2023-03-21T00:01:43;98069.69;;;11.80;66.58
65754;BME280;52488;47.502;18.940;2023-03-21T00:02:46;98074.81;;;11.74;66.86
65754;BME280;52488;47.502;18.940;2023-03-21T00:03:49;98070.81;;;11.65;67.01
65754;BME280;52488;47.502;18.940;2023-03-21T00:04:53;98068.00;;;11.75;67.01
65754;BME280;52488;47.502;18.940;2023-03-21T00:06:07;98067.28;;;11.74;66.96
65754;BME280;52488;47.502;18.940;2023-03-21T00:07:11;98071.41;;;11.63;67.20
65754;BME280;52488;47.502;18.940;2023-03-21T00:08:14;98071.72;;;11.79;67.01
65754;BME280;52488;47.502;18.940;2023-03-21T00:09:17;98073.56;;;11.86;66.51
65754;BME280;52488;47.502;18.940;2023-03-21T00:10:21;98074.22;;;11.75;66.82
65754;BME280;52488;47.502;18.940;2023-03-21T00:11:41;98068.53;;;11.61;67.20
65754;BME280;52488;47.502;18.940;2023-03-21T00:12:44;98064.41;;;11.51;67.47
65754;BME280;52488;47.502;18.940;2023-03-21T00:13:47;98068.34;;;11.48;67.59
65754;BME280;52488;47.502;18.940;2023-03-21T00:14:50;98064.84;;;11.47;67.61
65754;BME280;52488;47.502;18.940;2023-03-21T00:15:55;98069.19;;;11.50;67.36
65754;BME280;52488;47.502;18.940;2023-03-21T00:17:12;98074.75;;;11.41;67.67
65754;BME280;52488;47.502;18.940;2023-03-21T00:18:17;98068.31;;;11.26;67.97
65754;BME280;52488;47.502;18.940;2023-03-21T00:19:23;98068.97;;;11.15;68.37
65754;BME280;52488;47.502;18.940;2023-03-21T00:20:31;98063.47;;;11.15;68.46
65754;BME280;52488;47.502;18.940;2023-03-21T00:21:35;98069.19;;;10.98;68.72
65754;BME280;52488;47.502;18.940;2023-03-21T00:22:56;98059.13;;;10.91;68.97
65754;BME280;52488;47.502;18.940;2023-03-21T00:23:59;98069.41;;;10.90;68.86
65754;BME280;52488;47.502;18.940;2023-03-21T00:25:02;98059.03;;;10.79;69.26
65754;BME280;52488;47.502;18.940;2023-03-21T00:26:06;98058.94;;;10.67;69.60
65754;BME280;52488;47.502;18.940;2023-03-21T00:27:11;98066.06;;;10.61;69.97
65754;BME280;52488;47.502;18.940;2023-03-21T00:28:36;98058.06;;;10.65;70.01
65754;BME280;52488;47.502;18.940;2023-03-21T00:29:39;98052.34;;;10.51;70.37
65754;BME280;52488;47.502;18.940;2023-03-21T00:30:43;98052.38;;;10.41;70.67
65754;BME280;52488;47.502;18.940;2023-03-21T00:31:46;98050.78;;;10.38;70.77
65754;BME280;52488;47.502;18.940;2023-03-21T00:32:49;98052.25;;;10.29;70.84
65754;BME280;52488;47.502;18.940;2023-03-21T00:33:58;98053.41;;;10.26;71.35
65754;BME280;52488;47.502;18.940;2023-03-21T00:35:01;98053.56;;;10.19;72.05
65754;BME280;52488;47.502;18.940;2023-03-21T00:36:24;98055.88;;;10.13;72.34
65754;BME280;52488;47.502;18.940;2023-03-21T00:37:30;98049.94;;;10.26;71.71
65754;BME280;52488;47.502;18.940;2023-03-21T00:38:34;98048.78;;;10.10;71.81
65754;BME280;52488;47.502;18.940;2023-03-21T00:39:37;98047.81;;;9.95;72.27
65754;BME280;52488;47.502;18.940;2023-03-21T00:40:40;98044.63;;;9.99;72.41
65754;BME280;52488;47.502;18.940;2023-03-21T00:41:50;98049.97;;;10.07;72.49
65754;BME280;52488;47.502;18.940;2023-03-21T00:42:53;98041.59;;;9.95;73.21
65754;BME280;52488;47.502;18.940;2023-03-21T00:43:56;98042.91;;;9.84;73.27
65754;BME280;52488;47.502;18.940;2023-03-21T00:44:59;98040.59;;;9.81;73.27
65754;BME280;52488;47.502;18.940;2023-03-21T00:46:05;98046.38;;;9.75;73.28
65754;BME280;52488;47.502;18.940;2023-03-21T00:47:11;98046.66;;;9.69;74.00
65754;BME280;52488;47.502;18.940;2023-03-21T00:48:15;98041.06;;;9.67;73.95
65754;BME280;52488;47.502;18.940;2023-03-21T00:49:18;98049.28;;;9.67;74.29
65754;BME280;52488;47.502;18.940;2023-03-21T00:50:23;98048.41;;;9.74;74.58
65754;BME280;52488;47.502;18.940;2023-03-21T00:51:26;98038.44;;;9.79;74.46
65754;BME280;52488;47.502;18.940;2023-03-21T00:52:29;98039.47;;;9.84;73.55
65754;BME280;52488;47.502;18.940;2023-03-21T00:53:42;98042.63;;;9.70;74.32
65754;BME280;52488;47.502;18.940;2023-03-21T00:54:45;98039.16;;;9.60;75.06
65754;BME280;52488;47.502;18.940;2023-03-21T00:55:48;98037.72;;;9.59;74.99
65754;BME280;52488;47.502;18.940;2023-03-21T00:56:52;98040.47;;;9.69;74.30
65754;BME280;52488;47.502;18.940;2023-03-21T00:57:55;98033.97;;;9.55;74.46
65754;BME280;52488;47.502;18.940;2023-03-21T00:59:04;98034.53;;;9.43;74.65
65754;BME280;52488;47.502;18.940;2023-03-21T01:00:10;98041.47;;;9.35;75.19
65754;BME280;52488;47.502;18.940;2023-03-21T01:01:14;98029.03;;;9.24;75.45
65754;BME280;52488;47.502;18.940;2023-03-21T01:02:17;98033.25;;;9.35;74.68
65754;BME280;52488;47.502;18.940;2023-03-21T01:03:24;98042.75;;;9.24;75.12
65754;BME280;52488;47.502;18.940;2023-03-21T01:04:28;98035.81;;;9.13;75.99
65754;BME280;52488;47.502;18.940;2023-03-21T01:05:33;98033.63;;;9.21;75.46
65754;BME280;52488;47.502;18.940;2023-03-21T01:06:55;98030.19;;;9.31;74.87
65754;BME280;52488;47.502;18.940;2023-03-21T01:07:58;98029.75;;;9.05;75.41
65754;BME280;52488;47.502;18.940;2023-03-21T01:09:01;98034.16;;;8.91;76.10
65754;BME280;52488;47.502;18.940;2023-03-21T01:10:05;98031.41;;;8.81;76.54
65754;BME280;52488;47.502;18.940;2023-03-21T01:11:12;98031.25;;;8.79;76.63
65754;BME280;52488;47.502;18.940;2023-03-21T01:12:15;98024.38;;;8.97;76.46
65754;BME280;52488;47.502;18.940;2023-03-21T01:13:20;98026.81;;;8.93;76.35
65754;BME280;52488;47.502;18.940;2023-03-21T01:14:24;98024.19;;;8.86;76.81
65754;BME280;52488;47.502;18.940;2023-03-21T01:15:27;98026.19;;;8.76;77.06
65754;BME280;52488;47.502;18.940;2023-03-21T01:16:30;98027.72;;;8.59;77.39
65754;BME280;52488;47.502;18.940;2023-03-21T01:17:33;98028.88;;;8.56;77.33
65754;BME280;52488;47.502;18.940;2023-03-21T01:18:38;98028.09;;;8.46;77.44
65754;BME280;52488;47.502;18.940;2023-03-21T01:19:41;98027.47;;;8.38;77.58
65754;BME280;52488;47.502;18.940;2023-03-21T01:20:58;98037.94;;;8.32;77.87
65754;BME280;52488;47.502;18.940;2023-03-21T01:22:01;98037.22;;;8.31;77.83
65754;BME280;52488;47.502;18.940;2023-03-21T01:23:04;98025.88;;;8.35;77.73
65754;BME280;52488;47.502;18.940;2023-03-21T01:24:07;98023.06;;;8.25;77.60
65754;BME280;52488;47.502;18.940;2023-03-21T01:25:11;98016.38;;;8.36;78.21
65754;BME280;52488;47.502;18.940;2023-03-21T01:26:24;98020.72;;;8.39;78.47
65754;BME280;52488;47.502;18.940;2023-03-21T01:27:27;98018.16;;;8.24;78.99
65754;BME280;52488;47.502;18.940;2023-03-21T01:28:31;98019.41;;;8.13;79.27
65754;BME280;52488;47.502;18.940;2023-03-21T01:29:34;98016.47;;;8.01;79.89
65754;BME280;52488;47.502;18.940;2023-03-21T01:30:37;98021.63;;;7.97;80.46
65754;BME280;52488;47.502;18.940;2023-03-21T01:31:43;98018.13;;;8.14;79.48
65754;BME280;52488;47.502;18.940;2023-03-21T01:32:46;98027.22;;;7.99;79.53
65754;BME280;52488;47.502;18.940;2023-03-21T01:33:49;98021.53;;;7.87;80.13
65754;BME280;52488;47.502;18.940;2023-03-21T01:34:52;98026.16;;;7.85;80.11
65754;BME280;52488;47.502;18.940;2023-03-21T01:35:55;98028.41;;;7.79;80.26
65754;BME280;52488;47.502;18.940;2023-03-21T01:37:14;98026.22;;;7.77;80.44
65754;BME280;52488;47.502;18.940;2023-03-21T01:38:20;98026.97;;;7.78;80.29
65754;BME280;52488;47.502;18.940;2023-03-21T01:39:23;98021.00;;;7.72;81.09
65754;BME280;52488;47.502;18.940;2023-03-21T01:40:26;98027.94;;;7.73;81.01
65754;BME280;52488;47.502;18.940;2023-03-21T01:41:33;98025.19;;;7.73;80.88
65754;BME280;52488;47.502;18.940;2023-03-21T01:42:46;98020.37;;;7.63;81.58
65754;BME280;52488;47.502;18.940;2023-03-21T01:43:48;98023.84;;;7.64;81.78
65754;BME280;52488;47.502;18.940;2023-03-21T01:45:03;98024.88;;;7.68;81.50
65754;BME280;52488;47.502;18.940;2023-03-21T01:47:23;98019.87;;;7.75;81.95
65754;BME280;52488;47.502;18.940;2023-03-21T01:48:28;98032.69;;;7.72;82.40
65754;BME280;52488;47.502;18.940;2023-03-21T01:49:34;98023.75;;;7.72;82.45
65754;BME280;52488;47.502;18.940;2023-03-21T01:50:41;98035.41;;;7.72;82.68
65754;BME280;52488;47.502;18.940;2023-03-21T01:51:52;98027.37;;;7.74;82.75
65754;BME280;52488;47.502;18.940;2023-03-21T01:53:00;98028.41;;;7.79;82.51
65754;BME280;52488;47.502;18.940;2023-03-21T01:54:07;98023.16;;;7.90;82.30
65754;BME280;52488;47.502;18.940;2023-03-21T01:55:13;98023.56;;;7.87;82.22
65754;BME280;52488;47.502;18.940;2023-03-21T01:56:24;98016.50;;;7.84;82.40
65754;BME280;52488;47.502;18.940;2023-03-21T01:57:33;98020.31;;;7.98;82.43
65754;BME280;52488;47.502;18.940;2023-03-21T01:58:54;98013.81;;;7.93;82.53
65754;BME280;52488;47.502;18.940;2023-03-21T02:00:03;98006.09;;;7.82;82.88
65754;BME280;52488;47.502;18.940;2023-03-21T02:01:14;98010.13;;;7.81;83.18
65754;BME280;52488;47.502;18.940;2023-03-21T02:02:48;98013.50;;;7.89;82.60
65754;BME280;52488;47.502;18.940;2023-03-21T02:04:17;98019.47;;;7.96;82.41
65754;BME280;52488;47.502;18.940;2023-03-21T02:05:40;98015.69;;;7.91;82.75
65754;BME280;52488;47.502;18.940;2023-03-21T02:06:51;98027.59;;;7.86;82.95
65754;BME280;52488;47.502;18.940;2023-03-21T02:07:55;98008.31;;;7.84;83.06
65754;BME280;52488;47.502;18.940;2023-03-21T02:09:02;98016.66;;;7.86;83.30
65754;BME280;52488;47.502;18.940;2023-03-21T02:10:10;98007.56;;;7.83;83.55
65754;BME280;52488;47.502;18.940;2023-03-21T02:11:15;98011.69;;;7.75;83.67
65754;BME280;52488;47.502;18.940;2023-03-21T02:12:18;98014.09;;;7.71;84.07
65754;BME280;52488;47.502;18.940;2023-03-21T02:13:21;98008.31;;;7.84;84.03
65754;BME280;52488;47.502;18.940;2023-03-21T02:14:24;98009.88;;;7.87;83.94
65754;BME280;52488;47.502;18.940;2023-03-21T02:15:30;98013.06;;;7.83;84.07
65754;BME280;52488;47.502;18.940;2023-03-21T02:16:44;98003.94;;;7.81;84.42
65754;BME280;52488;47.502;18.940;2023-03-21T02:18:04;98012.94;;;7.91;84.09
65754;BME280;52488;47.502;18.940;2023-03-21T02:23:53;98007.16;;;7.87;84.43
65754;BME280;52488;47.502;18.940;2023-03-21T02:26:18;98015.69;;;7.91;84.33
65754;BME280;52488;47.502;18.940;2023-03-21T02:27:50;98013.75;;;7.84;84.53
65754;BME280;52488;47.502;18.940;2023-03-21T02:29:02;98008.69;;;7.80;84.66
65754;BME280;52488;47.502;18.940;2023-03-21T02:37:57;98013.19;;;7.85;84.81
65754;BME280;52488;47.502;18.940;2023-03-21T02:39:25;98025.75;;;7.88;84.98
65754;BME280;52488;47.502;18.940;2023-03-21T02:40:59;98018.41;;;7.91;85.05
65754;BME280;52488;47.502;18.940;2023-03-21T02:43:53;98013.72;;;8.01;84.16
65754;BME280;52488;47.502;18.940;2023-03-21T02:45:06;98007.22;;;7.97;84.30
65754;BME280;52488;47.502;18.940;2023-03-21T02:48:14;98014.81;;;7.88;84.75
65754;BME280;52488;47.502;18.940;2023-03-21T02:49:46;98007.09;;;8.04;84.32
65754;BME280;52488;47.502;18.940;2023-03-21T02:50:52;98013.88;;;8.03;84.39
65754;BME280;52488;47.502;18.940;2023-03-21T02:51:58;98011.19;;;8.13;84.05
65754;BME280;52488;47.502;18.940;2023-03-21T02:53:23;98010.31;;;8.10;84.23
65754;BME280;52488;47.502;18.940;2023-03-21T02:54:28;98010.94;;;8.18;84.09
65754;BME280;52488;47.502;18.940;2023-03-21T02:55:49;98012.97;;;8.18;83.89
65754;BME280;52488;47.502;18.940;2023-03-21T02:56:55;98014.41;;;8.19;84.02
65754;BME280;52488;47.502;18.940;2023-03-21T02:58:00;98006.88;;;8.37;83.06
65754;BME280;52488;47.502;18.940;2023-03-21T02:59:16;98004.13;;;8.37;82.90
65754;BME280;52488;47.502;18.940;2023-03-21T03:00:27;98012.28;;;8.54;82.22
65754;BME280;52488;47.502;18.940;2023-03-21T03:01:31;98013.56;;;8.53;82.16
65754;BME280;52488;47.502;18.940;2023-03-21T03:02:34;98010.88;;;8.63;81.81
65754;BME280;52488;47.502;18.940;2023-03-21T03:03:37;98013.97;;;8.86;80.85
65754;BME280;52488;47.502;18.940;2023-03-21T03:04:41;98011.84;;;8.94;80.30
65754;BME280;52488;47.502;18.940;2023-03-21T03:05:47;98017.16;;;8.92;80.26
65754;BME280;52488;47.502;18.940;2023-03-21T03:11:35;98020.91;;;8.97;79.07
65754;BME280;52488;47.502;18.940;2023-03-21T03:18:59;98011.13;;;8.94;79.15
65754;BME280;52488;47.502;18.940;2023-03-21T03:24:57;98010.53;;;8.95;78.79
65754;BME280;52488;47.502;18.940;2023-03-21T03:26:24;98012.41;;;9.03;78.23
65754;BME280;52488;47.502;18.940;2023-03-21T03:27:38;98010.69;;;8.97;78.64
65754;BME280;52488;47.502;18.940;2023-03-21T03:28:52;98018.87;;;8.88;78.46
65754;BME280;52488;47.502;18.940;2023-03-21T03:29:59;98008.78;;;8.90;78.42
65754;BME280;52488;47.502;18.940;2023-03-21T03:31:06;98009.66;;;8.93;78.68
65754;BME280;52488;47.502;18.940;2023-03-21T03:32:37;98006.06;;;9.00;78.33
65754;BME280;52488;47.502;18.940;2023-03-21T03:33:45;98006.78;;;8.91;78.72
65754;BME280;52488;47.502;18.940;2023-03-21T03:34:53;98007.78;;;8.95;78.85
65754;BME280;52488;47.502;18.940;2023-03-21T03:35:59;98012.84;;;8.89;78.83
65754;BME280;52488;47.502;18.940;2023-03-21T03:37:13;98000.75;;;9.02;78.32
65754;BME280;52488;47.502;18.940;2023-03-21T03:38:19;98005.34;;;8.99;78.36
65754;BME280;52488;47.502;18.940;2023-03-21T03:39:29;97998.00;;;9.02;78.23
65754;BME280;52488;47.502;18.940;2023-03-21T03:40:43;97995.25;;;9.21;77.69
65754;BME280;52488;47.502;18.940;2023-03-21T03:41:58;98002.78;;;9.11;77.85
65754;BME280;52488;47.502;18.940;2023-03-21T03:43:31;98008.22;;;9.02;78.29
65754;BME280;52488;47.502;18.940;2023-03-21T03:44:36;98000.16;;;9.04;78.21
65754;BME280;52488;47.502;18.940;2023-03-21T03:45:47;98002.34;;;9.05;78.44
65754;BME280;52488;47.502;18.940;2023-03-21T03:49:19;98010.56;;;9.05;78.10
65754;BME280;52488;47.502;18.940;2023-03-21T03:50:30;98009.13;;;9.23;77.37
65754;BME280;52488;47.502;18.940;2023-03-21T03:51:50;98010.41;;;9.13;77.80
65754;BME280;52488;47.502;18.940;2023-03-21T03:53:00;98013.75;;;9.11;77.95
65754;BME280;52488;47.502;18.940;2023-03-21T03:54:19;98013.59;;;9.19;77.61
65754;BME280;52488;47.502;18.940;2023-03-21T03:55:25;98013.88;;;9.33;77.03
65754;BME280;52488;47.502;18.940;2023-03-21T03:56:36;98022.69;;;9.31;76.86
65754;BME280;52488;47.502;18.940;2023-03-21T03:57:40;98016.06;;;9.34;76.75
65754;BME280;52488;47.502;18.940;2023-03-21T03:58:44;98013.59;;;9.38;76.61
65754;BME280;52488;47.502;18.940;2023-03-21T03:59:47;98013.75;;;9.31;76.93
65754;BME280;52488;47.502;18.940;2023-03-21T04:00:52;98013.63;;;9.29;77.12
65754;BME280;52488;47.502;18.940;2023-03-21T04:01:55;98008.41;;;9.23;77.41
65754;BME280;52488;47.502;18.940;2023-03-21T04:02:58;98015.06;;;9.30;77.24
65754;BME280;52488;47.502;18.940;2023-03-21T04:04:02;98015.34;;;9.34;77.06
65754;BME280;52488;47.502;18.940;2023-03-21T04:05:15;98013.63;;;9.29;77.21
65754;BME280;52488;47.502;18.940;2023-03-21T04:06:22;98012.03;;;9.35;77.01
65754;BME280;52488;47.502;18.940;2023-03-21T04:07:25;98014.06;;;9.35;77.03
65754;BME280;52488;47.502;18.940;2023-03-21T04:08:29;98014.06;;;9.44;76.72
65754;BME280;52488;47.502;18.940;2023-03-21T04:09:33;98019.37;;;9.52;76.32
65754;BME280;52488;47.502;18.940;2023-03-21T04:10:46;98017.38;;;9.52;76.20
65754;BME280;52488;47.502;18.940;2023-03-21T04:11:49;98019.25;;;9.50;76.30
65754;BME280;52488;47.502;18.940;2023-03-21T04:12:52;98022.72;;;9.50;76.35
65754;BME280;52488;47.502;18.940;2023-03-21T04:13:55;98018.97;;;9.56;76.12
65754;BME280;52488;47.502;18.940;2023-03-21T04:14:58;98013.63;;;9.58;75.92
65754;BME280;52488;47.502;18.940;2023-03-21T04:16:11;98013.63;;;9.58;75.85
65754;BME280;52488;47.502;18.940;2023-03-21T04:17:16;98013.19;;;9.51;76.01
65754;BME280;52488;47.502;18.940;2023-03-21T04:18:20;98016.06;;;9.53;76.11
65754;BME280;52488;47.502;18.940;2023-03-21T04:19:24;98026.47;;;9.55;75.95
65754;BME280;52488;47.502;18.940;2023-03-21T04:20:28;98025.59;;;9.52;76.12
65754;BME280;52488;47.502;18.940;2023-03-21T04:21:45;98020.41;;;9.57;75.92
65754;BME280;52488;47.502;18.940;2023-03-21T04:22:49;98015.78;;;9.59;75.69
65754;BME280;52488;47.502;18.940;2023-03-21T04:23:52;98025.31;;;9.58;75.70
65754;BME280;52488;47.502;18.940;2023-03-21T04:24:56;98010.59;;;9.53;75.86
65754;BME280;52488;47.502;18.940;2023-03-21T04:26:03;98017.78;;;9.49;75.93
65754;BME280;52488;47.502;18.940;2023-03-21T04:27:06;98022.84;;;9.52;75.79
65754;BME280;52488;47.502;18.940;2023-03-21T04:28:10;98015.03;;;9.49;75.88
65754;BME280;52488;47.502;18.940;2023-03-21T04:29:13;98012.91;;;9.57;75.27
65754;BME280;52488;47.502;18.940;2023-03-21T04:30:17;98019.09;;;9.48;75.58
65754;BME280;52488;47.502;18.940;2023-03-21T04:31:21;98011.87;;;9.43;75.90
65754;BME280;52488;47.502;18.940;2023-03-21T04:32:28;98013.34;;;9.44;75.83
65754;BME280;52488;47.502;18.940;2023-03-21T04:33:35;98008.12;;;9.38;75.89
65754;BME280;52488;47.502;18.940;2023-03-21T04:34:40;98010.31;;;9.40;75.82
65754;BME280;52488;47.502;18.940;2023-03-21T04:35:45;98011.44;;;9.37;75.48
65754;BME280;52488;47.502;18.940;2023-03-21T04:36:51;98017.78;;;9.30;75.81
65754;BME280;52488;47.502;18.940;2023-03-21T04:37:55;98004.53;;;9.55;75.57
65754;BME280;52488;47.502;18.940;2023-03-21T04:38:58;98013.78;;;9.50;75.51
65754;BME280;52488;47.502;18.940;2023-03-21T04:40:05;98014.78;;;9.35;76.01
65754;BME280;52488;47.502;18.940;2023-03-21T04:41:09;98007.13;;;9.34;76.11
65754;BME280;52488;47.502;18.940;2023-03-21T04:42:13;98006.97;;;9.32;76.09
65754;BME280;52488;47.502;18.940;2023-03-21T04:43:17;98007.13;;;9.24;76.18
65754;BME280;52488;47.502;18.940;2023-03-21T04:44:20;98010.56;;;9.24;76.41
65754;BME280;52488;47.502;18.940;2023-03-21T04:45:23;98008.97;;;9.21;76.51
65754;BME280;52488;47.502;18.940;2023-03-21T04:46:26;98016.06;;;9.24;76.39
65754;BME280;52488;47.502;18.940;2023-03-21T04:47:29;98020.37;;;9.18;76.37
65754;BME280;52488;47.502;18.940;2023-03-21T04:48:32;98017.34;;;9.14;76.46
65754;BME280;52488;47.502;18.940;2023-03-21T04:49:36;98018.06;;;9.14;76.38
65754;BME280;52488;47.502;18.940;2023-03-21T04:50:39;98017.91;;;9.12;76.14
65754;BME280;52488;47.502;18.940;2023-03-21T04:51:43;98021.22;;;9.01;76.42
65754;BME280;52488;47.502;18.940;2023-03-21T04:52:46;98015.16;;;9.03;76.56
65754;BME280;52488;47.502;18.940;2023-03-21T04:53:50;98015.56;;;8.99;76.74
65754;BME280;52488;47.502;18.940;2023-03-21T04:54:54;98017.75;;;9.01;76.77
65754;BME280;52488;47.502;18.940;2023-03-21T04:55:57;98013.13;;;9.03;76.83
65754;BME280;52488;47.502;18.940;2023-03-21T04:56:59;98013.28;;;8.95;77.10
65754;BME280;52488;47.502;18.940;2023-03-21T04:58:03;98015.28;;;8.95;77.16
65754;BME280;52488;47.502;18.940;2023-03-21T04:59:10;98015.28;;;8.95;77.36
65754;BME280;52488;47.502;18.940;2023-03-21T05:00:14;98014.31;;;9.00;76.82
65754;BME280;52488;47.502;18.940;2023-03-21T05:01:17;98007.22;;;8.97;76.93
65754;BME280;52488;47.502;18.940;2023-03-21T05:02:22;98001.59;;;8.95;77.02
65754;BME280;52488;47.502;18.940;2023-03-21T05:03:25;98003.59;;;8.85;77.18
65754;BME280;52488;47.502;18.940;2023-03-21T05:04:33;98004.28;;;8.76;77.64
65754;BME280;52488;47.502;18.940;2023-03-21T05:05:36;98003.97;;;8.71;77.95
65754;BME280;52488;47.502;18.940;2023-03-21T05:06:40;98004.13;;;8.73;77.97
65754;BME280;52488;47.502;18.940;2023-03-21T05:07:46;98005.13;;;8.68;78.09
65754;BME280;52488;47.502;18.940;2023-03-21T05:08:49;98000.41;;;8.79;77.92
65754;BME280;52488;47.502;18.940;2023-03-21T05:09:53;98005.00;;;8.76;77.82
65754;BME280;52488;47.502;18.940;2023-03-21T05:10:56;98007.00;;;8.76;78.05
65754;BME280;52488;47.502;18.940;2023-03-21T05:11:59;98008.44;;;8.77;78.04
65754;BME280;52488;47.502;18.940;2023-03-21T05:13:02;98007.72;;;8.76;77.89
65754;BME280;52488;47.502;18.940;2023-03-21T05:14:10;98013.91;;;8.67;78.06
65754;BME280;52488;47.502;18.940;2023-03-21T05:15:13;98010.16;;;8.62;78.31
65754;BME280;52488;47.502;18.940;2023-03-21T05:16:16;98013.78;;;8.75;78.23
65754;BME280;52488;47.502;18.940;2023-03-21T05:17:20;98013.38;;;8.78;77.94
65754;BME280;52488;47.502;18.940;2023-03-21T05:18:26;98011.00;;;8.65;78.39
65754;BME280;52488;47.502;18.940;2023-03-21T05:19:30;98011.72;;;8.65;78.56
65754;BME280;52488;47.502;18.940;2023-03-21T05:20:38;98010.88;;;8.63;78.50
65754;BME280;52488;47.502;18.940;2023-03-21T05:21:44;98013.75;;;8.55;78.84
65754;BME280;52488;47.502;18.940;2023-03-21T05:22:47;98018.31;;;8.53;79.00
65754;BME280;52488;47.502;18.940;2023-03-21T05:23:51;98025.38;;;8.46;79.43
65754;BME280;52488;47.502;18.940;2023-03-21T05:24:58;98017.59;;;8.52;79.31
65754;BME280;52488;47.502;18.940;2023-03-21T05:26:01;98021.31;;;8.47;79.42
65754;BME280;52488;47.502;18.940;2023-03-21T05:27:04;98019.87;;;8.46;79.57
65754;BME280;52488;47.502;18.940;2023-03-21T05:28:07;98030.12;;;8.45;79.73
65754;BME280;52488;47.502;18.940;2023-03-21T05:29:10;98037.59;;;8.45;80.03
65754;BME280;52488;47.502;18.940;2023-03-21T05:30:15;98030.56;;;8.52;79.87
65754;BME280;52488;47.502;18.940;2023-03-21T05:31:19;98033.31;;;8.52;79.84
65754;BME280;52488;47.502;18.940;2023-03-21T05:32:22;98035.06;;;8.57;79.83
65754;BME280;52488;47.502;18.940;2023-03-21T05:33:25;98032.38;;;8.66;79.66
65754;BME280;52488;47.502;18.940;2023-03-21T05:34:28;98032.91;;;8.65;79.73
65754;BME280;52488;47.502;18.940;2023-03-21T05:35:32;98038.00;;;8.68;79.72
65754;BME280;52488;47.502;18.940;2023-03-21T05:36:35;98035.13;;;8.76;79.69
65754;BME280;52488;47.502;18.940;2023-03-21T05:37:38;98029.09;;;8.78;79.66
65754;BME280;52488;47.502;18.940;2023-03-21T05:38:41;98039.88;;;8.76;79.84
65754;BME280;52488;47.502;18.940;2023-03-21T05:39:47;98031.41;;;8.81;79.82
65754;BME280;52488;47.502;18.940;2023-03-21T05:40:51;98037.63;;;8.91;79.50
65754;BME280;52488;47.502;18.940;2023-03-21T05:41:56;98035.94;;;9.06;79.07
65754;BME280;52488;47.502;18.940;2023-03-21T05:42:58;98029.56;;;9.03;79.07
65754;BME280;52488;47.502;18.940;2023-03-21T05:44:01;98038.06;;;8.97;79.32
65754;BME280;52488;47.502;18.940;2023-03-21T05:45:05;98038.50;;;8.94;79.57
65754;BME280;52488;47.502;18.940;2023-03-21T05:46:08;98037.53;;;9.09;79.24
65754;BME280;52488;47.502;18.940;2023-03-21T05:47:14;98044.88;;;9.06;79.20
65754;BME280;52488;47.502;18.940;2023-03-21T05:48:17;98047.91;;;9.01;79.46
65754;BME280;52488;47.502;18.940;2023-03-21T05:49:20;98043.13;;;9.01;79.50
65754;BME280;52488;47.502;18.940;2023-03-21T05:50:24;98046.47;;;8.99;79.54
65754;BME280;52488;47.502;18.940;2023-03-21T05:51:27;98045.16;;;9.01;79.78
65754;BME280;52488;47.502;18.940;2023-03-21T05:52:30;98045.91;;;9.11;79.53
65754;BME280;52488;47.502;18.940;2023-03-21T05:53:33;98046.62;;;9.11;79.54
65754;BME280;52488;47.502;18.940;2023-03-21T05:54:36;98052.81;;;9.12;79.79
65754;BME280;52488;47.502;18.940;2023-03-21T05:55:39;98051.53;;;9.13;79.74
65754;BME280;52488;47.502;18.940;2023-03-21T05:56:41;98050.37;;;9.16;79.74
65754;BME280;52488;47.502;18.940;2023-03-21T05:57:45;98053.84;;;9.16;79.62
65754;BME280;52488;47.502;18.940;2023-03-21T05:58:47;98045.78;;;9.18;79.67
65754;BME280;52488;47.502;18.940;2023-03-21T05:59:51;98053.56;;;9.22;79.60
65754;BME280;52488;47.502;18.940;2023-03-21T06:00:54;98049.25;;;9.29;79.45
65754;BME280;52488;47.502;18.940;2023-03-21T06:01:57;98048.25;;;9.34;79.10
65754;BME280;52488;47.502;18.940;2023-03-21T06:03:00;98047.25;;;9.39;78.62
65754;BME280;52488;47.502;18.940;2023-03-21T06:04:03;98048.25;;;9.43;78.55
65754;BME280;52488;47.502;18.940;2023-03-21T06:05:06;98047.94;;;9.49;78.44
65754;BME280;52488;47.502;18.940;2023-03-21T06:06:10;98049.84;;;9.56;78.24
65754;BME280;52488;47.502;18.940;2023-03-21T06:07:13;98046.09;;;9.71;77.50
65754;BME280;52488;47.502;18.940;2023-03-21T06:08:16;98052.44;;;9.73;77.53
65754;BME280;52488;47.502;18.940;2023-03-21T06:09:20;98056.78;;;9.76;77.50
65754;BME280;52488;47.502;18.940;2023-03-21T06:10:24;98055.75;;;9.91;76.78
65754;BME280;52488;47.502;18.940;2023-03-21T06:11:32;98052.44;;;9.93;76.66
65754;BME280;52488;47.502;18.940;2023-03-21T06:12:36;98049.25;;;9.96;76.56
65754;BME280;52488;47.502;18.940;2023-03-21T06:13:39;98050.81;;;10.09;75.98
65754;BME280;52488;47.502;18.940;2023-03-21T06:14:42;98055.44;;;10.16;75.31
65754;BME280;52488;47.502;18.940;2023-03-21T06:15:45;98058.59;;;10.22;74.94
65754;BME280;52488;47.502;18.940;2023-03-21T06:16:48;98056.03;;;10.24;74.86
65754;BME280;52488;47.502;18.940;2023-03-21T06:17:52;98044.31;;;10.34;74.40
65754;BME280;52488;47.502;18.940;2023-03-21T06:18:55;98050.75;;;10.48;73.51
65754;BME280;52488;47.502;18.940;2023-03-21T06:19:58;98044.50;;;10.57;73.02
65754;BME280;52488;47.502;18.940;2023-03-21T06:21:02;98043.59;;;10.64;72.63
65754;BME280;52488;47.502;18.940;2023-03-21T06:22:06;98052.00;;;10.66;72.46
65754;BME280;52488;47.502;18.940;2023-03-21T06:23:09;98045.50;;;10.62;72.78
65754;BME280;52488;47.502;18.940;2023-03-21T06:24:12;98047.66;;;10.63;72.95
65754;BME280;52488;47.502;18.940;2023-03-21T06:25:15;98050.22;;;10.71;72.61
65754;BME280;52488;47.502;18.940;2023-03-21T06:26:18;98052.81;;;10.78;72.10
65754;BME280;52488;47.502;18.940;2023-03-21T06:27:24;98045.56;;;10.83;71.49
65754;BME280;52488;47.502;18.940;2023-03-21T06:28:30;98043.78;;;10.88;71.14